sensor_id;sensor_type;location;lat;lon;timestamp;P1;durP1;ratioP1;P2;durP2;ratioP2
16854;SDS011;8543;54.522;18.550;2024-02-21T00:01:46;10.50;;;2.90;;
16854;SDS011;8543;54.522;18.550;2024-02-21T00:04:11;10.00;;;2.40;;
16854;SDS011;8543;54.522;18.550;2024-02-21T00:06:37;9.30;;;3.00;;
16854;SDS011;8543;54.522;18.550;2024-02-21T00:09:02;10.70;;;2.60;;
16854;SDS011;8543;54.522;18.550;2024-02-21T00:11:28;13.80;;;2.70;;
16854;SDS011;8543;54.522;18.550;2024-02-21T00:13:53;9.00;;;2.70;;
16854;SDS011;8543;54.522;18.550;2024-02-21T00:16:19;6.90;;;2.50;;
16854;SDS011;8543;54.522;18.550;2024-02-21T00:18:44;11.30;;;2.80;;
16854;SDS011;8543;54.522;18.550;2024-02-21T00:21:10;9.80;;;2.30;;
16854;SDS011;8543;54.522;18.550;2024-02-21T00:23:40;15.00;;;3.20;;
16854;SDS011;8543;54.522;18.550;2024-02-21T00:26:05;7.00;;;2.50;;
16854;SDS011;8543;54.522;18.550;2024-02-21T00:28:31;10.40;;;3.20;;
16854;SDS011;8543;54.522;18.550;2024-02-21T00:30:56;11.80;;;3.30;;
16854;SDS011;8543;54.522;18.550;2024-02-21T00:33:22;7.80;;;2.40;;
16854;SDS011;8543;54.522;18.550;2024-02-21T00:35:47;12.40;;;3.20;;
16854;SDS011;8543;54.522;18.550;2024-02-21T00:38:12;9.60;;;2.90;;
16854;SDS011;8543;54.522;18.550;2024-02-21T00:40:38;10.30;;;3.00;;
16854;SDS011;8543;54.522;18.550;2024-02-21T00:43:03;11.30;;;3.20;;
16854;SDS011;8543;54.522;18.550;2024-02-21T00:45:29;10.90;;;2.90;;
16854;SDS011;8543;54.522;18.550;2024-02-21T00:47:54;9.90;;;2.80;;
16854;SDS011;8543;54.522;18.550;2024-02-21T00:50:19;14.30;;;3.40;;
16854;SDS011;8543;54.522;18.550;2024-02-21T00:52:45;12.00;;;3.20;;
16854;SDS011;8543;54.522;18.550;2024-02-21T00:55:10;12.50;;;3.70;;
16854;SDS011;8543;54.522;18.550;2024-02-21T00:57:36;14.20;;;3.60;;
16854;SDS011;8543;54.522;18.550;2024-02-21T01:00:04;14.70;;;4.00;;
16854;SDS011;8543;54.522;18.550;2024-02-21T01:02:30;13.40;;;4.30;;
16854;SDS011;8543;54.522;18.550;2024-02-21T01:04:58;13.50;;;4.20;;
16854;SDS011;8543;54.522;18.550;2024-02-21T01:07:24;12.80;;;3.70;;
16854;SDS011;8543;54.522;18.550;2024-02-21T01:09:49;12.00;;;4.30;;
16854;SDS011;8543;54.522;18.550;2024-02-21T01:12:16;14.70;;;3.90;;
16854;SDS011;8543;54.522;18.550;2024-02-21T01:14:41;15.80;;;4.10;;
16854;SDS011;8543;54.522;18.550;2024-02-21T01:17:07;11.70;;;3.60;;
16854;SDS011;8543;54.522;18.550;2024-02-21T01:19:32;13.50;;;4.10;;
16854;SDS011;8543;54.522;18.550;2024-02-21T01:21:58;17.30;;;4.30;;
16854;SDS011;8543;54.522;18.550;2024-02-21T01:24:23;16.10;;;4.50;;
16854;SDS011;8543;54.522;18.550;2024-02-21T01:26:49;15.90;;;4.40;;
16854;SDS011;8543;54.522;18.550;2024-02-21T01:29:14;11.20;;;3.30;;
16854;SDS011;8543;54.522;18.550;2024-02-21T01:31:40;10.70;;;3.70;;
16854;SDS011;8543;54.522;18.550;2024-02-21T01:34:05;13.60;;;4.20;;
16854;SDS011;8543;54.522;18.550;2024-02-21T01:36:30;14.80;;;3.90;;
16854;SDS011;8543;54.522;18.550;2024-02-21T01:38:56;13.90;;;3.90;;
16854;SDS011;8543;54.522;18.550;2024-02-21T01:41:21;11.90;;;3.90;;
16854;SDS011;8543;54.522;18.550;2024-02-21T01:43:47;15.30;;;3.90;;
16854;SDS011;8543;54.522;18.550;2024-02-21T01:46:12;13.10;;;3.60;;
16854;SDS011;8543;54.522;18.550;2024-02-21T01:48:38;12.70;;;3.40;;
16854;SDS011;8543;54.522;18.550;2024-02-21T01:51:03;18.10;;;4.50;;
16854;SDS011;8543;54.522;18.550;2024-02-21T01:53:30;13.30;;;3.90;;
16854;SDS011;8543;54.522;18.550;2024-02-21T01:55:58;10.70;;;3.70;;
16854;SDS011;8543;54.522;18.550;2024-02-21T01:58:23;14.40;;;4.40;;
16854;SDS011;8543;54.522;18.550;2024-02-21T02:00:49;13.10;;;3.60;;
16854;SDS011;8543;54.522;18.550;2024-02-21T02:03:15;10.80;;;3.60;;
16854;SDS011;8543;54.522;18.550;2024-02-21T02:05:47;15.10;;;4.10;;
16854;SDS011;8543;54.522;18.550;2024-02-21T02:08:18;12.50;;;3.70;;
16854;SDS011;8543;54.522;18.550;2024-02-21T02:10:44;12.10;;;3.80;;
16854;SDS011;8543;54.522;18.550;2024-02-21T02:13:13;10.50;;;3.70;;
16854;SDS011;8543;54.522;18.550;2024-02-21T02:15:42;14.80;;;3.70;;
16854;SDS011;8543;54.522;18.550;2024-02-21T02:18:09;13.30;;;4.10;;
16854;SDS011;8543;54.522;18.550;2024-02-21T02:20:35;15.10;;;4.70;;
16854;SDS011;8543;54.522;18.550;2024-02-21T02:23:06;19.40;;;4.70;;
16854;SDS011;8543;54.522;18.550;2024-02-21T02:25:34;17.10;;;4.20;;
16854;SDS011;8543;54.522;18.550;2024-02-21T02:28:00;14.00;;;4.40;;
16854;SDS011;8543;54.522;18.550;2024-02-21T02:30:25;12.00;;;3.60;;
16854;SDS011;8543;54.522;18.550;2024-02-21T02:32:51;13.40;;;4.10;;
16854;SDS011;8543;54.522;18.550;2024-02-21T02:35:16;12.50;;;3.30;;
16854;SDS011;8543;54.522;18.550;2024-02-21T02:37:47;13.90;;;4.00;;
16854;SDS011;8543;54.522;18.550;2024-02-21T02:40:14;15.00;;;4.20;;
16854;SDS011;8543;54.522;18.550;2024-02-21T02:42:40;12.50;;;4.00;;
16854;SDS011;8543;54.522;18.550;2024-02-21T02:45:05;13.30;;;4.00;;
16854;SDS011;8543;54.522;18.550;2024-02-21T02:47:31;12.80;;;3.50;;
16854;SDS011;8543;54.522;18.550;2024-02-21T02:49:56;12.20;;;3.90;;
16854;SDS011;8543;54.522;18.550;2024-02-21T02:52:22;20.40;;;4.30;;
16854;SDS011;8543;54.522;18.550;2024-02-21T02:54:47;19.50;;;4.50;;
16854;SDS011;8543;54.522;18.550;2024-02-21T02:57:17;13.50;;;4.10;;
16854;SDS011;8543;54.522;18.550;2024-02-21T02:59:46;18.20;;;4.50;;
16854;SDS011;8543;54.522;18.550;2024-02-21T03:02:13;15.20;;;4.10;;
16854;SDS011;8543;54.522;18.550;2024-02-21T03:04:41;11.10;;;3.70;;
16854;SDS011;8543;54.522;18.550;2024-02-21T03:07:07;11.40;;;3.90;;
16854;SDS011;8543;54.522;18.550;2024-02-21T03:09:32;11.10;;;3.50;;
16854;SDS011;8543;54.522;18.550;2024-02-21T03:11:57;13.60;;;4.40;;
16854;SDS011;8543;54.522;18.550;2024-02-21T03:14:31;11.00;;;3.80;;
16854;SDS011;8543;54.522;18.550;2024-02-21T03:16:57;10.60;;;3.90;;
16854;SDS011;8543;54.522;18.550;2024-02-21T03:19:23;11.90;;;4.00;;
16854;SDS011;8543;54.522;18.550;2024-02-21T03:21:48;11.50;;;3.60;;
16854;SDS011;8543;54.522;18.550;2024-02-21T03:24:18;15.50;;;4.30;;
16854;SDS011;8543;54.522;18.550;2024-02-21T03:26:43;11.20;;;4.40;;
16854;SDS011;8543;54.522;18.550;2024-02-21T03:29:10;14.20;;;4.70;;
16854;SDS011;8543;54.522;18.550;2024-02-21T03:31:36;15.10;;;4.40;;
16854;SDS011;8543;54.522;18.550;2024-02-21T03:34:02;13.60;;;4.00;;
16854;SDS011;8543;54.522;18.550;2024-02-21T03:36:27;10.40;;;3.60;;
16854;SDS011;8543;54.522;18.550;2024-02-21T03:38:54;10.20;;;3.70;;
16854;SDS011;8543;54.522;18.550;2024-02-21T03:41:20;9.00;;;3.60;;
16854;SDS011;8543;54.522;18.550;2024-02-21T03:43:45;9.00;;;3.50;;
16854;SDS011;8543;54.522;18.550;2024-02-21T03:46:11;10.70;;;4.20;;
16854;SDS011;8543;54.522;18.550;2024-02-21T03:48:36;9.50;;;3.10;;
16854;SDS011;8543;54.522;18.550;2024-02-21T03:51:02;7.10;;;3.30;;
16854;SDS011;8543;54.522;18.550;2024-02-21T03:53:27;9.30;;;3.40;;
16854;SDS011;8543;54.522;18.550;2024-02-21T03:55:53;12.90;;;3.80;;
16854;SDS011;8543;54.522;18.550;2024-02-21T03:58:19;10.70;;;4.10;;
16854;SDS011;8543;54.522;18.550;2024-02-21T04:00:45;8.30;;;4.40;;
16854;SDS011;8543;54.522;18.550;2024-02-21T04:03:11;11.80;;;3.50;;
16854;SDS011;8543;54.522;18.550;2024-02-21T04:05:36;8.80;;;3.70;;
16854;SDS011;8543;54.522;18.550;2024-02-21T04:08:05;10.20;;;3.50;;
16854;SDS011;8543;54.522;18.550;2024-02-21T04:10:30;10.50;;;3.80;;
16854;SDS011;8543;54.522;18.550;2024-02-21T04:12:56;8.20;;;3.70;;
16854;SDS011;8543;54.522;18.550;2024-02-21T04:15:21;9.50;;;3.80;;
16854;SDS011;8543;54.522;18.550;2024-02-21T04:17:47;11.00;;;3.50;;
16854;SDS011;8543;54.522;18.550;2024-02-21T04:20:13;10.50;;;4.00;;
16854;SDS011;8543;54.522;18.550;2024-02-21T04:22:40;10.30;;;3.90;;
16854;SDS011;8543;54.522;18.550;2024-02-21T04:25:06;10.60;;;4.10;;
16854;SDS011;8543;54.522;18.550;2024-02-21T04:27:32;10.00;;;4.20;;
16854;SDS011;8543;54.522;18.550;2024-02-21T04:29:57;10.90;;;3.60;;
16854;SDS011;8543;54.522;18.550;2024-02-21T04:32:23;10.70;;;3.50;;
16854;SDS011;8543;54.522;18.550;2024-02-21T04:34:48;9.20;;;3.80;;
16854;SDS011;8543;54.522;18.550;2024-02-21T04:37:14;10.50;;;3.70;;
16854;SDS011;8543;54.522;18.550;2024-02-21T04:39:39;9.00;;;4.00;;
16854;SDS011;8543;54.522;18.550;2024-02-21T04:42:05;11.20;;;4.10;;
16854;SDS011;8543;54.522;18.550;2024-02-21T04:44:30;7.70;;;3.60;;
16854;SDS011;8543;54.522;18.550;2024-02-21T04:46:56;9.50;;;4.00;;
16854;SDS011;8543;54.522;18.550;2024-02-21T04:49:21;12.10;;;4.00;;
16854;SDS011;8543;54.522;18.550;2024-02-21T04:51:47;9.20;;;4.00;;
16854;SDS011;8543;54.522;18.550;2024-02-21T04:54:12;10.60;;;4.10;;
16854;SDS011;8543;54.522;18.550;2024-02-21T04:56:37;8.80;;;4.20;;
16854;SDS011;8543;54.522;18.550;2024-02-21T04:59:03;9.70;;;3.70;;
16854;SDS011;8543;54.522;18.550;2024-02-21T05:01:29;12.90;;;4.20;;
16854;SDS011;8543;54.522;18.550;2024-02-21T05:03:54;15.20;;;4.40;;
16854;SDS011;8543;54.522;18.550;2024-02-21T05:06:19;11.60;;;4.40;;
16854;SDS011;8543;54.522;18.550;2024-02-21T05:08:45;9.90;;;4.30;;
16854;SDS011;8543;54.522;18.550;2024-02-21T05:11:10;13.10;;;4.60;;
16854;SDS011;8543;54.522;18.550;2024-02-21T05:13:36;11.30;;;4.10;;
16854;SDS011;8543;54.522;18.550;2024-02-21T05:16:01;13.10;;;4.00;;
16854;SDS011;8543;54.522;18.550;2024-02-21T05:18:28;9.90;;;3.60;;
16854;SDS011;8543;54.522;18.550;2024-02-21T05:20:53;11.30;;;4.20;;
16854;SDS011;8543;54.522;18.550;2024-02-21T05:23:19;10.20;;;3.70;;
16854;SDS011;8543;54.522;18.550;2024-02-21T05:25:44;11.50;;;4.10;;
16854;SDS011;8543;54.522;18.550;2024-02-21T05:28:10;11.10;;;4.20;;
16854;SDS011;8543;54.522;18.550;2024-02-21T05:30:35;11.70;;;4.50;;
16854;SDS011;8543;54.522;18.550;2024-02-21T05:33:04;12.70;;;4.30;;
16854;SDS011;8543;54.522;18.550;2024-02-21T05:35:30;11.50;;;4.40;;
16854;SDS011;8543;54.522;18.550;2024-02-21T05:37:56;11.90;;;4.70;;
16854;SDS011;8543;54.522;18.550;2024-02-21T05:40:21;12.20;;;4.00;;
16854;SDS011;8543;54.522;18.550;2024-02-21T05:42:47;9.80;;;4.20;;
16854;SDS011;8543;54.522;18.550;2024-02-21T05:45:12;8.00;;;3.80;;
16854;SDS011;8543;54.522;18.550;2024-02-21T05:47:38;11.90;;;4.80;;
16854;SDS011;8543;54.522;18.550;2024-02-21T05:50:04;12.90;;;4.10;;
16854;SDS011;8543;54.522;18.550;2024-02-21T05:52:29;13.80;;;4.20;;
16854;SDS011;8543;54.522;18.550;2024-02-21T05:54:55;11.40;;;4.90;;
16854;SDS011;8543;54.522;18.550;2024-02-21T05:57:21;12.00;;;4.20;;
16854;SDS011;8543;54.522;18.550;2024-02-21T05:59:47;12.20;;;4.30;;
16854;SDS011;8543;54.522;18.550;2024-02-21T06:02:12;9.60;;;4.30;;
16854;SDS011;8543;54.522;18.550;2024-02-21T06:04:37;8.30;;;3.70;;
16854;SDS011;8543;54.522;18.550;2024-02-21T06:07:04;9.60;;;4.30;;
16854;SDS011;8543;54.522;18.550;2024-02-21T06:09:30;11.10;;;4.70;;
16854;SDS011;8543;54.522;18.550;2024-02-21T06:11:55;12.70;;;4.60;;
16854;SDS011;8543;54.522;18.550;2024-02-21T06:14:20;8.60;;;4.70;;
16854;SDS011;8543;54.522;18.550;2024-02-21T06:16:46;10.80;;;4.40;;
16854;SDS011;8543;54.522;18.550;2024-02-21T06:19:11;8.50;;;3.70;;
16854;SDS011;8543;54.522;18.550;2024-02-21T06:21:37;10.20;;;4.60;;
16854;SDS011;8543;54.522;18.550;2024-02-21T06:24:03;12.50;;;4.60;;
16854;SDS011;8543;54.522;18.550;2024-02-21T06:26:28;9.50;;;4.70;;
16854;SDS011;8543;54.522;18.550;2024-02-21T06:28:54;10.90;;;4.90;;
16854;SDS011;8543;54.522;18.550;2024-02-21T06:31:19;16.60;;;5.40;;
16854;SDS011;8543;54.522;18.550;2024-02-21T06:33:44;11.30;;;5.40;;
16854;SDS011;8543;54.522;18.550;2024-02-21T06:36:10;10.00;;;4.80;;
16854;SDS011;8543;54.522;18.550;2024-02-21T06:38:35;12.70;;;5.70;;
16854;SDS011;8543;54.522;18.550;2024-02-21T06:41:01;13.80;;;5.20;;
16854;SDS011;8543;54.522;18.550;2024-02-21T06:43:27;12.50;;;5.70;;
16854;SDS011;8543;54.522;18.550;2024-02-21T06:45:53;15.50;;;5.80;;
16854;SDS011;8543;54.522;18.550;2024-02-21T06:48:20;16.10;;;6.20;;
16854;SDS011;8543;54.522;18.550;2024-02-21T06:50:45;11.80;;;5.10;;
16854;SDS011;8543;54.522;18.550;2024-02-21T06:53:11;12.30;;;5.60;;
16854;SDS011;8543;54.522;18.550;2024-02-21T06:55:37;16.30;;;6.00;;
16854;SDS011;8543;54.522;18.550;2024-02-21T06:58:02;13.00;;;5.90;;
16854;SDS011;8543;54.522;18.550;2024-02-21T07:00:28;12.60;;;5.70;;
16854;SDS011;8543;54.522;18.550;2024-02-21T07:02:54;12.30;;;5.60;;
16854;SDS011;8543;54.522;18.550;2024-02-21T07:05:19;13.70;;;6.60;;
16854;SDS011;8543;54.522;18.550;2024-02-21T07:07:45;17.30;;;5.80;;
16854;SDS011;8543;54.522;18.550;2024-02-21T07:10:10;15.50;;;6.70;;
16854;SDS011;8543;54.522;18.550;2024-02-21T07:12:36;12.00;;;5.80;;
16854;SDS011;8543;54.522;18.550;2024-02-21T07:15:04;16.90;;;6.90;;
16854;SDS011;8543;54.522;18.550;2024-02-21T07:17:30;12.90;;;5.90;;
16854;SDS011;8543;54.522;18.550;2024-02-21T07:19:55;13.00;;;5.50;;
16854;SDS011;8543;54.522;18.550;2024-02-21T07:22:24;16.30;;;6.40;;
16854;SDS011;8543;54.522;18.550;2024-02-21T07:24:50;20.40;;;6.80;;
16854;SDS011;8543;54.522;18.550;2024-02-21T07:27:15;14.00;;;6.40;;
16854;SDS011;8543;54.522;18.550;2024-02-21T07:29:41;14.90;;;6.40;;
16854;SDS011;8543;54.522;18.550;2024-02-21T07:32:06;19.80;;;6.70;;
16854;SDS011;8543;54.522;18.550;2024-02-21T07:34:32;16.30;;;6.40;;
16854;SDS011;8543;54.522;18.550;2024-02-21T07:36:57;18.40;;;7.00;;
16854;SDS011;8543;54.522;18.550;2024-02-21T07:39:23;16.80;;;6.80;;
16854;SDS011;8543;54.522;18.550;2024-02-21T07:41:48;20.50;;;7.30;;
16854;SDS011;8543;54.522;18.550;2024-02-21T07:44:17;18.20;;;6.70;;
16854;SDS011;8543;54.522;18.550;2024-02-21T07:46:42;14.90;;;6.90;;
16854;SDS011;8543;54.522;18.550;2024-02-21T07:49:07;13.50;;;7.20;;
16854;SDS011;8543;54.522;18.550;2024-02-21T07:51:33;18.10;;;6.90;;
16854;SDS011;8543;54.522;18.550;2024-02-21T07:54:00;15.40;;;7.00;;
16854;SDS011;8543;54.522;18.550;2024-02-21T07:56:27;19.70;;;7.60;;
16854;SDS011;8543;54.522;18.550;2024-02-21T07:58:52;19.20;;;7.00;;
16854;SDS011;8543;54.522;18.550;2024-02-21T08:01:18;16.40;;;7.10;;
16854;SDS011;8543;54.522;18.550;2024-02-21T08:03:45;16.60;;;7.40;;
16854;SDS011;8543;54.522;18.550;2024-02-21T08:06:12;17.40;;;7.60;;
16854;SDS011;8543;54.522;18.550;2024-02-21T08:08:38;14.50;;;6.60;;
16854;SDS011;8543;54.522;18.550;2024-02-21T08:11:03;15.50;;;7.70;;
16854;SDS011;8543;54.522;18.550;2024-02-21T08:13:29;17.30;;;6.80;;
16854;SDS011;8543;54.522;18.550;2024-02-21T08:15:54;13.50;;;7.10;;
16854;SDS011;8543;54.522;18.550;2024-02-21T08:18:20;15.80;;;7.00;;
16854;SDS011;8543;54.522;18.550;2024-02-21T08:20:45;15.30;;;6.90;;
16854;SDS011;8543;54.522;18.550;2024-02-21T08:23:10;14.50;;;7.30;;
16854;SDS011;8543;54.522;18.550;2024-02-21T08:25:36;12.00;;;6.20;;
16854;SDS011;8543;54.522;18.550;2024-02-21T08:28:01;13.70;;;5.40;;
16854;SDS011;8543;54.522;18.550;2024-02-21T08:30:27;13.30;;;6.30;;
16854;SDS011;8543;54.522;18.550;2024-02-21T08:32:52;13.50;;;5.90;;
16854;SDS011;8543;54.522;18.550;2024-02-21T08:35:21;11.80;;;5.90;;
16854;SDS011;8543;54.522;18.550;2024-02-21T08:37:47;16.70;;;7.90;;
16854;SDS011;8543;54.522;18.550;2024-02-21T08:40:13;16.90;;;7.40;;
16854;SDS011;8543;54.522;18.550;2024-02-21T08:42:42;14.10;;;6.30;;
16854;SDS011;8543;54.522;18.550;2024-02-21T08:45:08;13.90;;;6.50;;
16854;SDS011;8543;54.522;18.550;2024-02-21T08:47:34;18.50;;;6.90;;
16854;SDS011;8543;54.522;18.550;2024-02-21T08:50:03;11.90;;;6.30;;
16854;SDS011;8543;54.522;18.550;2024-02-21T08:52:28;14.80;;;6.50;;
16854;SDS011;8543;54.522;18.550;2024-02-21T08:54:54;11.60;;;6.10;;
16854;SDS011;8543;54.522;18.550;2024-02-21T08:57:19;17.20;;;7.50;;
16854;SDS011;8543;54.522;18.550;2024-02-21T08:59:45;12.90;;;6.70;;
16854;SDS011;8543;54.522;18.550;2024-02-21T09:02:12;11.30;;;7.10;;
16854;SDS011;8543;54.522;18.550;2024-02-21T09:04:38;12.10;;;6.90;;
16854;SDS011;8543;54.522;18.550;2024-02-21T09:07:03;13.90;;;7.40;;
16854;SDS011;8543;54.522;18.550;2024-02-21T09:09:29;13.50;;;6.80;;
16854;SDS011;8543;54.522;18.550;2024-02-21T09:11:54;14.10;;;7.00;;
16854;SDS011;8543;54.522;18.550;2024-02-21T09:14:20;16.70;;;6.80;;
16854;SDS011;8543;54.522;18.550;2024-02-21T09:16:45;13.00;;;6.60;;
16854;SDS011;8543;54.522;18.550;2024-02-21T09:19:10;15.10;;;7.20;;
16854;SDS011;8543;54.522;18.550;2024-02-21T09:21:36;14.20;;;7.70;;
16854;SDS011;8543;54.522;18.550;2024-02-21T09:24:03;16.10;;;7.90;;
16854;SDS011;8543;54.522;18.550;2024-02-21T09:26:29;14.50;;;8.20;;
16854;SDS011;8543;54.522;18.550;2024-02-21T09:28:55;13.60;;;7.90;;
16854;SDS011;8543;54.522;18.550;2024-02-21T09:31:20;12.80;;;7.10;;
16854;SDS011;8543;54.522;18.550;2024-02-21T09:33:46;13.40;;;7.40;;
16854;SDS011;8543;54.522;18.550;2024-02-21T09:36:11;15.00;;;7.40;;
16854;SDS011;8543;54.522;18.550;2024-02-21T09:38:36;10.30;;;6.80;;
16854;SDS011;8543;54.522;18.550;2024-02-21T09:41:12;13.10;;;7.20;;
16854;SDS011;8543;54.522;18.550;2024-02-21T09:43:42;16.20;;;8.40;;
16854;SDS011;8543;54.522;18.550;2024-02-21T09:46:08;12.90;;;7.80;;
16854;SDS011;8543;54.522;18.550;2024-02-21T09:51:32;13.40;;;7.60;;
16854;SDS011;8543;54.522;18.550;2024-02-21T09:53:58;13.80;;;7.80;;
16854;SDS011;8543;54.522;18.550;2024-02-21T09:56:24;12.80;;;7.20;;
16854;SDS011;8543;54.522;18.550;2024-02-21T09:58:50;12.80;;;7.10;;
16854;SDS011;8543;54.522;18.550;2024-02-21T10:01:15;13.30;;;8.10;;
16854;SDS011;8543;54.522;18.550;2024-02-21T10:03:41;11.70;;;7.10;;
16854;SDS011;8543;54.522;18.550;2024-02-21T10:06:08;11.50;;;6.40;;
16854;SDS011;8543;54.522;18.550;2024-02-21T10:08:34;12.80;;;7.10;;
16854;SDS011;8543;54.522;18.550;2024-02-21T10:10:59;12.20;;;6.60;;
16854;SDS011;8543;54.522;18.550;2024-02-21T10:13:27;11.70;;;6.70;;
16854;SDS011;8543;54.522;18.550;2024-02-21T10:16:02;11.00;;;6.60;;
16854;SDS011;8543;54.522;18.550;2024-02-21T10:18:27;12.10;;;6.80;;
16854;SDS011;8543;54.522;18.550;2024-02-21T10:21:00;9.60;;;6.40;;
16854;SDS011;8543;54.522;18.550;2024-02-21T10:23:40;9.70;;;6.10;;
16854;SDS011;8543;54.522;18.550;2024-02-21T10:26:07;10.10;;;6.20;;
16854;SDS011;8543;54.522;18.550;2024-02-21T10:28:33;7.60;;;5.30;;
16854;SDS011;8543;54.522;18.550;2024-02-21T10:30:58;7.90;;;5.60;;
16854;SDS011;8543;54.522;18.550;2024-02-21T10:33:23;7.00;;;4.80;;
16854;SDS011;8543;54.522;18.550;2024-02-21T10:35:50;11.00;;;5.30;;
16854;SDS011;8543;54.522;18.550;2024-02-21T10:38:16;7.10;;;4.90;;
16854;SDS011;8543;54.522;18.550;2024-02-21T10:40:42;7.60;;;4.50;;
16854;SDS011;8543;54.522;18.550;2024-02-21T10:43:09;6.60;;;4.30;;
16854;SDS011;8543;54.522;18.550;2024-02-21T10:45:37;7.60;;;4.30;;
16854;SDS011;8543;54.522;18.550;2024-02-21T10:48:15;7.60;;;4.40;;
16854;SDS011;8543;54.522;18.550;2024-02-21T10:50:57;6.50;;;4.20;;
16854;SDS011;8543;54.522;18.550;2024-02-21T10:53:47;6.80;;;3.90;;
16854;SDS011;8543;54.522;18.550;2024-02-21T10:56:22;5.90;;;3.70;;
16854;SDS011;8543;54.522;18.550;2024-02-21T10:59:00;6.30;;;3.80;;
16854;SDS011;8543;54.522;18.550;2024-02-21T11:01:27;6.10;;;3.70;;
16854;SDS011;8543;54.522;18.550;2024-02-21T11:03:55;7.30;;;4.30;;
16854;SDS011;8543;54.522;18.550;2024-02-21T11:06:21;6.90;;;3.60;;
16854;SDS011;8543;54.522;18.550;2024-02-21T11:08:48;7.00;;;4.20;;
16854;SDS011;8543;54.522;18.550;2024-02-21T11:11:24;8.50;;;4.30;;
16854;SDS011;8543;54.522;18.550;2024-02-21T11:13:50;8.50;;;4.50;;
16854;SDS011;8543;54.522;18.550;2024-02-21T11:16:22;6.70;;;4.20;;
16854;SDS011;8543;54.522;18.550;2024-02-21T11:18:48;6.80;;;3.70;;
16854;SDS011;8543;54.522;18.550;2024-02-21T11:21:14;6.40;;;3.60;;
16854;SDS011;8543;54.522;18.550;2024-02-21T11:23:39;6.90;;;3.90;;
16854;SDS011;8543;54.522;18.550;2024-02-21T11:26:08;5.90;;;3.80;;
16854;SDS011;8543;54.522;18.550;2024-02-21T11:28:35;6.60;;;3.90;;
16854;SDS011;8543;54.522;18.550;2024-02-21T11:31:22;6.60;;;3.70;;
16854;SDS011;8543;54.522;18.550;2024-02-21T11:33:47;6.30;;;3.80;;
16854;SDS011;8543;54.522;18.550;2024-02-21T11:36:23;7.20;;;4.00;;
16854;SDS011;8543;54.522;18.550;2024-02-21T11:38:52;9.30;;;4.50;;
16854;SDS011;8543;54.522;18.550;2024-02-21T11:41:20;8.90;;;4.30;;
16854;SDS011;8543;54.522;18.550;2024-02-21T11:43:49;6.70;;;4.30;;
16854;SDS011;8543;54.522;18.550;2024-02-21T11:46:16;9.90;;;4.50;;
16854;SDS011;8543;54.522;18.550;2024-02-21T11:48:41;7.90;;;4.50;;
16854;SDS011;8543;54.522;18.550;2024-02-21T11:51:09;7.20;;;4.30;;
16854;SDS011;8543;54.522;18.550;2024-02-21T11:53:35;6.80;;;4.30;;
16854;SDS011;8543;54.522;18.550;2024-02-21T11:56:00;5.40;;;3.60;;
16854;SDS011;8543;54.522;18.550;2024-02-21T11:58:25;6.30;;;3.90;;
16854;SDS011;8543;54.522;18.550;2024-02-21T12:00:51;8.00;;;4.20;;
16854;SDS011;8543;54.522;18.550;2024-02-21T12:03:17;6.10;;;4.40;;
16854;SDS011;8543;54.522;18.550;2024-02-21T12:05:43;9.50;;;4.40;;
16854;SDS011;8543;54.522;18.550;2024-02-21T12:08:08;5.90;;;4.20;;
16854;SDS011;8543;54.522;18.550;2024-02-21T12:10:34;6.30;;;3.60;;
16854;SDS011;8543;54.522;18.550;2024-02-21T12:13:10;6.50;;;3.80;;
16854;SDS011;8543;54.522;18.550;2024-02-21T12:15:38;6.00;;;3.20;;
16854;SDS011;8543;54.522;18.550;2024-02-21T12:18:04;8.00;;;4.10;;
16854;SDS011;8543;54.522;18.550;2024-02-21T12:20:30;5.60;;;3.30;;
16854;SDS011;8543;54.522;18.550;2024-02-21T12:22:57;6.30;;;3.30;;
16854;SDS011;8543;54.522;18.550;2024-02-21T12:25:25;5.50;;;3.40;;
16854;SDS011;8543;54.522;18.550;2024-02-21T12:27:54;5.80;;;3.20;;
16854;SDS011;8543;54.522;18.550;2024-02-21T12:30:21;6.50;;;3.20;;
16854;SDS011;8543;54.522;18.550;2024-02-21T12:32:46;4.50;;;2.80;;
16854;SDS011;8543;54.522;18.550;2024-02-21T12:35:13;5.40;;;2.80;;
16854;SDS011;8543;54.522;18.550;2024-02-21T12:37:39;6.20;;;3.00;;
16854;SDS011;8543;54.522;18.550;2024-02-21T12:40:05;6.40;;;3.20;;
16854;SDS011;8543;54.522;18.550;2024-02-21T12:42:32;5.40;;;2.80;;
16854;SDS011;8543;54.522;18.550;2024-02-21T12:44:58;5.20;;;2.70;;
16854;SDS011;8543;54.522;18.550;2024-02-21T12:47:24;5.30;;;2.80;;
16854;SDS011;8543;54.522;18.550;2024-02-21T12:49:51;5.90;;;3.00;;
16854;SDS011;8543;54.522;18.550;2024-02-21T12:52:17;6.00;;;2.70;;
16854;SDS011;8543;54.522;18.550;2024-02-21T12:54:43;6.50;;;2.80;;
16854;SDS011;8543;54.522;18.550;2024-02-21T12:57:09;6.90;;;2.90;;
16854;SDS011;8543;54.522;18.550;2024-02-21T12:59:34;6.50;;;3.00;;
16854;SDS011;8543;54.522;18.550;2024-02-21T13:01:59;9.00;;;3.00;;
16854;SDS011;8543;54.522;18.550;2024-02-21T13:04:25;4.80;;;2.70;;
16854;SDS011;8543;54.522;18.550;2024-02-21T13:06:50;6.10;;;3.00;;
16854;SDS011;8543;54.522;18.550;2024-02-21T13:09:16;5.40;;;3.00;;
16854;SDS011;8543;54.522;18.550;2024-02-21T13:11:42;5.40;;;2.90;;
16854;SDS011;8543;54.522;18.550;2024-02-21T13:14:08;6.00;;;2.80;;
16854;SDS011;8543;54.522;18.550;2024-02-21T13:16:33;6.20;;;2.70;;
16854;SDS011;8543;54.522;18.550;2024-02-21T13:19:07;5.40;;;2.80;;
16854;SDS011;8543;54.522;18.550;2024-02-21T13:21:34;4.90;;;2.90;;
16854;SDS011;8543;54.522;18.550;2024-02-21T13:24:00;6.70;;;2.80;;
16854;SDS011;8543;54.522;18.550;2024-02-21T13:26:25;5.80;;;2.60;;
16854;SDS011;8543;54.522;18.550;2024-02-21T13:28:51;5.00;;;2.70;;
16854;SDS011;8543;54.522;18.550;2024-02-21T13:31:17;6.20;;;2.80;;
16854;SDS011;8543;54.522;18.550;2024-02-21T13:33:42;5.90;;;2.70;;
16854;SDS011;8543;54.522;18.550;2024-02-21T13:36:09;5.90;;;2.50;;
16854;SDS011;8543;54.522;18.550;2024-02-21T13:38:35;4.80;;;2.40;;
16854;SDS011;8543;54.522;18.550;2024-02-21T13:41:00;6.00;;;2.70;;
16854;SDS011;8543;54.522;18.550;2024-02-21T13:43:26;5.30;;;2.90;;
16854;SDS011;8543;54.522;18.550;2024-02-21T13:45:58;5.60;;;2.80;;
16854;SDS011;8543;54.522;18.550;2024-02-21T13:48:25;6.10;;;2.50;;
16854;SDS011;8543;54.522;18.550;2024-02-21T13:50:52;6.40;;;2.70;;
16854;SDS011;8543;54.522;18.550;2024-02-21T13:53:17;5.20;;;2.40;;
16854;SDS011;8543;54.522;18.550;2024-02-21T13:55:44;4.80;;;2.20;;
16854;SDS011;8543;54.522;18.550;2024-02-21T13:58:10;3.50;;;2.00;;
16854;SDS011;8543;54.522;18.550;2024-02-21T14:00:35;3.50;;;2.00;;
16854;SDS011;8543;54.522;18.550;2024-02-21T14:03:01;3.60;;;2.00;;
16854;SDS011;8543;54.522;18.550;2024-02-21T14:05:27;8.10;;;2.10;;
16854;SDS011;8543;54.522;18.550;2024-02-21T14:07:52;4.60;;;1.90;;
16854;SDS011;8543;54.522;18.550;2024-02-21T14:10:19;5.30;;;2.30;;
16854;SDS011;8543;54.522;18.550;2024-02-21T14:12:45;5.00;;;2.10;;
16854;SDS011;8543;54.522;18.550;2024-02-21T14:15:12;4.80;;;2.00;;
16854;SDS011;8543;54.522;18.550;2024-02-21T14:17:38;4.90;;;1.90;;
16854;SDS011;8543;54.522;18.550;2024-02-21T14:20:04;3.80;;;2.00;;
16854;SDS011;8543;54.522;18.550;2024-02-21T14:22:31;5.40;;;2.30;;
16854;SDS011;8543;54.522;18.550;2024-02-21T14:24:56;7.60;;;2.80;;
16854;SDS011;8543;54.522;18.550;2024-02-21T14:27:22;5.90;;;2.60;;
16854;SDS011;8543;54.522;18.550;2024-02-21T14:29:47;5.90;;;2.70;;
16854;SDS011;8543;54.522;18.550;2024-02-21T14:32:12;5.90;;;2.50;;
16854;SDS011;8543;54.522;18.550;2024-02-21T14:34:38;5.60;;;2.20;;
16854;SDS011;8543;54.522;18.550;2024-02-21T14:37:03;4.60;;;2.10;;
16854;SDS011;8543;54.522;18.550;2024-02-21T14:39:29;5.40;;;2.40;;